Time;durP1;ratioP1;P1;durP2;ratioP2;P2;SDS_P1;SDS_P2;PMS_P1;PMS_P2;Temp;Humidity;BMP_temperature;BMP_pressure;BME280_temperature;BME280_humidity;BME280_pressure;Samples;Min_cycle;Max_cycle;Signal;HPM_P1;HPM_P2
2021/05/25 00:02:06;;;;;;;;;0.00;0.00;;;;;20.25;37.94;100874.53;5040606;28;53125;-58
2021/05/25 00:04:31;;;;;;;;;1.00;1.00;;;;;20.25;38.17;100898.25;5040993;28;45272;-57
2021/05/25 00:06:57;;;;;;;;;0.33;0.33;;;;;20.24;38.08;100888.63;5011990;28;46508;-58
2021/05/25 00:09:22;;;;;;;;;1.00;0.67;;;;;20.24;38.15;100900.03;5039641;28;45498;-58
2021/05/25 00:11:47;;;;;;;;;0.33;0.00;;;;;20.24;38.09;100901.81;5029854;28;45211;-57
2021/05/25 00:14:18;;;;;;;;;0.33;0.33;;;;;20.23;37.88;100897.44;5021483;28;60972;-58
2021/05/25 00:16:43;;;;;;;;;0.00;0.00;;;;;20.23;38.09;100892.19;5020822;28;46025;-57
2021/05/25 00:19:08;;;;;;;;;1.00;1.00;;;;;20.22;38.32;100906.28;5020379;28;60160;-58
2021/05/25 00:21:34;;;;;;;;;1.33;1.00;;;;;20.21;38.25;100915.97;5021963;28;45508;-57
2021/05/25 00:23:59;;;;;;;;;2.00;1.00;;;;;20.21;38.15;100921.25;5031192;28;45320;-57
2021/05/25 00:26:26;;;;;;;;;0.67;0.67;;;;;20.21;37.85;100936.16;5032036;28;59357;-58
2021/05/25 00:28:52;;;;;;;;;0.67;0.67;;;;;20.20;38.16;100932.69;5021851;28;45284;-58
2021/05/25 00:31:17;;;;;;;;;0.00;0.00;;;;;20.20;38.28;100931.81;5021661;28;45260;-59
2021/05/25 00:33:42;;;;;;;;;0.00;0.00;;;;;20.19;38.26;100938.88;5021087;28;54172;-59
2021/05/25 00:36:10;;;;;;;;;1.00;1.00;;;;;20.19;38.02;100928.34;5021482;28;45962;-59
2021/05/25 00:38:36;;;;;;;;;0.33;0.33;;;;;20.18;38.16;100936.31;5019751;28;45429;-58
2021/05/25 00:41:02;;;;;;;;;1.00;0.00;;;;;20.17;38.11;100940.72;5032484;28;45418;-57
2021/05/25 00:43:28;;;;;;;;;1.00;1.00;;;;;20.17;37.85;100945.97;5023006;28;45324;-57
2021/05/25 00:45:54;;;;;;;;;2.00;2.00;;;;;20.17;38.26;100950.41;5032637;28;46936;-58
2021/05/25 00:48:19;;;;;;;;;0.33;0.33;;;;;20.16;38.35;100957.44;5022354;28;45242;-57
2021/05/25 00:50:44;;;;;;;;;1.00;1.00;;;;;20.15;38.11;100963.63;5021771;28;45728;-58
2021/05/25 00:53:10;;;;;;;;;0.67;0.67;;;;;20.15;38.30;100976.78;5019985;28;49045;-58
2021/05/25 00:55:38;;;;;;;;;1.33;1.33;;;;;20.15;38.04;100987.34;5027791;28;57871;-58
2021/05/25 00:58:08;;;;;;;;;0.67;0.67;;;;;20.15;38.18;100999.66;5036536;28;45854;-58
2021/05/25 01:00:41;;;;;;;;;0.67;0.67;;;;;20.14;38.41;100997.94;5030645;28;45371;-58
2021/05/25 01:03:07;;;;;;;;;1.00;1.00;;;;;20.14;38.12;101001.41;5021737;28;45386;-58
2021/05/25 01:05:33;;;;;;;;;0.67;0.67;;;;;20.13;38.06;100999.69;5021302;28;46160;-58
2021/05/25 01:07:59;;;;;;;;;2.00;0.00;;;;;20.14;37.88;101000.56;5021140;28;45244;-58
2021/05/25 01:12:59;;;;;;;;;2.00;2.00;;;;;20.12;38.13;101008.53;5021430;28;45436;-58
2021/05/25 01:15:25;;;;;;;;;1.00;1.00;;;;;20.10;37.90;101003.31;5021052;28;46321;-57
2021/05/25 01:17:52;;;;;;;;;0.67;0.67;;;;;20.11;38.35;101012.09;5021080;28;45304;-57
2021/05/25 01:20:21;;;;;;;;;0.67;0.67;;;;;20.11;38.03;101020.00;5021375;28;46412;-57
2021/05/25 01:22:46;;;;;;;;;1.33;1.33;;;;;20.09;37.84;101022.69;5008248;28;45373;-57
2021/05/25 01:25:13;;;;;;;;;0.67;0.67;;;;;20.09;37.61;101033.22;5027422;28;45992;-58
2021/05/25 01:27:39;;;;;;;;;0.33;0.33;;;;;20.08;37.91;101039.41;5006554;28;45341;-58
2021/05/25 01:30:06;;;;;;;;;0.33;0.33;;;;;20.07;37.93;101044.72;5022744;28;45442;-57
2021/05/25 01:32:32;;;;;;;;;1.00;1.00;;;;;20.07;37.92;101050.00;5024863;28;45387;-58
2021/05/25 01:34:57;;;;;;;;;1.00;1.00;;;;;20.07;38.31;101057.91;5023130;28;45280;-57
2021/05/25 01:37:23;;;;;;;;;1.00;1.00;;;;;20.06;37.85;101067.56;5023470;28;68684;-58
2021/05/25 01:39:53;;;;;;;;;0.67;0.67;;;;;20.06;38.21;101051.75;5023515;28;45485;-58
2021/05/25 01:42:18;;;;;;;;;0.00;0.00;;;;;20.04;38.09;101058.84;5030352;28;45249;-57
2021/05/25 01:44:44;;;;;;;;;2.00;1.00;;;;;20.05;38.19;101067.63;5030416;28;46196;-58
2021/05/25 01:47:09;;;;;;;;;0.67;0.67;;;;;20.04;37.87;101065.91;5024431;28;45427;-58
2021/05/25 01:49:34;;;;;;;;;1.00;1.00;;;;;20.04;37.88;101073.81;5023472;28;68127;-58
2021/05/25 01:52:00;;;;;;;;;0.00;0.00;;;;;20.03;37.83;101072.97;5023971;28;54949;-58
2021/05/25 01:54:25;;;;;;;;;2.00;2.00;;;;;20.03;38.05;101075.59;5024170;28;46449;-58
2021/05/25 01:56:51;;;;;;;;;0.67;0.67;;;;;20.03;37.88;101069.47;5036904;28;45298;-58
2021/05/25 01:59:16;;;;;;;;;0.67;0.67;;;;;20.02;37.87;101068.63;5024237;28;45299;-57
2021/05/25 02:01:41;;;;;;;;;2.00;2.00;;;;;20.01;37.80;101080.06;5023050;28;45421;-57
2021/05/25 02:04:07;;;;;;;;;0.00;0.00;;;;;20.02;38.06;101080.91;5023383;28;63505;-57
2021/05/25 02:06:32;;;;;;;;;0.00;0.00;;;;;20.01;37.99;101081.81;5002361;28;45305;-58
2021/05/25 02:08:58;;;;;;;;;0.00;0.00;;;;;20.01;38.01;101079.19;5024203;28;45340;-58
2021/05/25 02:11:23;;;;;;;;;1.00;1.00;;;;;20.00;38.18;101077.47;5036054;28;45511;-58
2021/05/25 02:13:49;;;;;;;;;0.00;0.00;;;;;19.97;38.37;101075.81;5023831;28;45769;-58
2021/05/25 02:16:17;;;;;;;;;0.00;0.00;;;;;19.99;37.93;101079.25;5023472;28;53655;-57
2021/05/25 02:18:45;;;;;;;;;0.00;0.00;;;;;19.99;37.97;101088.91;5022694;28;45358;-58
2021/05/25 02:21:12;;;;;;;;;2.33;0.67;;;;;19.98;38.13;101087.19;5023675;28;45517;-59
2021/05/25 02:23:38;;;;;;;;;0.00;0.00;;;;;19.97;38.00;101088.09;5023827;28;46086;-58
2021/05/25 02:26:04;;;;;;;;;1.00;1.00;;;;;19.98;37.97;101095.09;5023290;28;45253;-59
2021/05/25 02:28:30;;;;;;;;;1.00;1.00;;;;;19.97;37.90;101101.28;5022719;28;45387;-58
2021/05/25 02:30:55;;;;;;;;;0.00;0.00;;;;;19.97;37.77;101096.00;5022637;28;45487;-58
2021/05/25 02:33:22;;;;;;;;;3.00;0.00;;;;;19.95;38.06;101094.31;5023439;28;46196;-58
2021/05/25 02:35:49;;;;;;;;;0.33;0.33;;;;;19.95;38.06;101098.72;5023608;28;45398;-58
2021/05/25 02:38:15;;;;;;;;;0.00;0.00;;;;;19.95;38.03;101103.97;5023741;28;45415;-58
2021/05/25 02:40:42;;;;;;;;;0.33;0.33;;;;;19.94;38.09;101097.88;5023305;28;45276;-58
2021/05/25 02:43:08;;;;;;;;;0.33;0.33;;;;;19.92;38.27;101097.06;5023086;28;45268;-58
2021/05/25 02:45:34;;;;;;;;;0.33;0.33;;;;;19.94;38.04;101110.16;5022851;28;45376;-58
2021/05/25 02:48:00;;;;;;;;;3.00;0.00;;;;;19.93;37.73;101100.53;5032946;28;45347;-58
2021/05/25 02:50:26;;;;;;;;;1.00;1.00;;;;;19.93;38.09;101105.81;5022346;28;45406;-58
2021/05/25 02:52:53;;;;;;;;;0.00;0.00;;;;;19.91;37.74;101108.50;5005737;28;45676;-59
2021/05/25 02:55:24;;;;;;;;;0.00;0.00;;;;;19.91;37.96;101110.25;5020857;28;45642;-58
2021/05/25 02:57:50;;;;;;;;;0.00;0.00;;;;;19.91;38.13;101115.53;5040804;28;45464;-58
2021/05/25 03:00:21;;;;;;;;;0.00;0.00;;;;;19.91;38.32;101115.53;5023609;28;45415;-58
2021/05/25 03:02:47;;;;;;;;;0.33;0.33;;;;;19.90;38.09;101122.59;5023049;28;46296;-58
2021/05/25 03:05:13;;;;;;;;;0.00;0.00;;;;;19.89;37.88;101115.59;5023134;28;45256;-58
2021/05/25 03:07:39;;;;;;;;;0.33;0.33;;;;;19.89;37.91;101120.03;5023181;28;45342;-58
2021/05/25 03:10:07;;;;;;;;;0.00;0.00;;;;;19.89;38.02;101130.56;5030332;28;45641;-58
2021/05/25 03:12:33;;;;;;;;;0.00;0.00;;;;;19.89;38.03;101125.28;5027326;28;45375;-58
2021/05/25 03:14:58;;;;;;;;;1.00;0.67;;;;;19.88;38.09;101124.41;5010306;28;45247;-59
2021/05/25 03:17:24;;;;;;;;;0.67;0.67;;;;;19.88;37.86;101134.09;5022824;28;45382;-58
2021/05/25 03:19:49;;;;;;;;;0.00;0.00;;;;;19.87;37.74;101137.66;5023143;28;45499;-58
2021/05/25 03:22:16;;;;;;;;;1.00;1.00;;;;;19.87;37.84;101145.53;5021567;28;46295;-58
2021/05/25 03:24:41;;;;;;;;;0.00;0.00;;;;;19.86;37.95;101135.88;5033505;28;45254;-58
2021/05/25 03:27:07;;;;;;;;;0.33;0.00;;;;;19.86;38.07;101144.63;5022744;28;45577;-58
2021/05/25 03:29:32;;;;;;;;;1.67;1.00;;;;;19.86;37.72;101146.41;5021873;28;45284;-61
2021/05/25 03:31:58;;;;;;;;;0.00;0.00;;;;;19.86;37.82;101141.16;5021192;28;45529;-58
2021/05/25 03:34:23;;;;;;;;;0.00;0.00;;;;;19.85;38.19;101148.19;5022744;28;45850;-58
2021/05/25 03:36:48;;;;;;;;;0.00;0.00;;;;;19.85;38.23;101145.53;5040908;28;45374;-58
2021/05/25 03:39:14;;;;;;;;;0.00;0.00;;;;;19.84;38.26;101135.06;5042419;28;49419;-58
2021/05/25 03:41:39;;;;;;;;;0.00;0.00;;;;;19.84;38.07;101150.88;5039949;28;74185;-57
2021/05/25 03:44:06;;;;;;;;;1.00;1.00;;;;;19.84;37.99;101156.16;5041298;28;45372;-57
2021/05/25 03:46:31;;;;;;;;;0.00;0.00;;;;;19.84;38.33;101148.25;5042642;28;45255;-57
2021/05/25 03:48:57;;;;;;;;;0.67;0.67;;;;;19.83;38.26;101149.16;5042650;28;45446;-58
2021/05/25 03:51:22;;;;;;;;;1.33;0.00;;;;;19.83;38.02;101154.41;5042148;28;47395;-58
2021/05/25 03:53:50;;;;;;;;;0.00;0.00;;;;;19.83;37.85;101157.06;5040473;28;63234;-58
2021/05/25 03:56:17;;;;;;;;;0.00;0.00;;;;;19.82;37.91;101164.06;5030106;28;45295;-58
2021/05/25 03:58:50;;;;;;;;;0.33;0.33;;;;;19.82;38.46;101171.13;5022403;28;45466;-58
2021/05/25 04:01:22;;;;;;;;;0.00;0.00;;;;;19.81;37.88;101165.03;5021848;28;45523;-58
2021/05/25 04:03:49;;;;;;;;;1.00;1.00;;;;;19.81;37.86;101180.81;5022129;28;45244;-63
2021/05/25 04:06:15;;;;;;;;;0.00;0.00;;;;;19.80;38.36;101185.22;5020972;28;45221;-59
2021/05/25 04:08:41;;;;;;;;;0.00;0.00;;;;;19.80;37.89;101181.72;5022406;28;45337;-59
2021/05/25 04:11:06;;;;;;;;;0.00;0.00;;;;;19.80;38.12;101195.75;5021780;28;45485;-58
2021/05/25 04:13:31;;;;;;;;;1.00;1.00;;;;;19.80;38.44;101197.53;5022179;28;45296;-58
2021/05/25 04:15:57;;;;;;;;;0.33;0.33;;;;;19.79;37.95;101193.19;5038813;28;45201;-59
2021/05/25 04:18:23;;;;;;;;;0.00;0.00;;;;;19.79;38.02;101196.66;5029890;28;45480;-58
2021/05/25 04:20:49;;;;;;;;;0.67;0.67;;;;;19.78;38.42;101197.56;5021683;28;46057;-58
2021/05/25 04:23:14;;;;;;;;;1.00;0.00;;;;;19.79;38.13;101203.72;5030263;28;45268;-58
2021/05/25 04:25:40;;;;;;;;;0.67;0.00;;;;;19.78;37.97;101208.09;5023751;28;45477;-58
2021/05/25 04:28:05;;;;;;;;;0.33;0.00;;;;;19.78;38.42;101221.25;5020893;28;45554;-59
2021/05/25 04:30:31;;;;;;;;;0.00;0.00;;;;;19.78;37.86;101217.78;5020557;28;46116;-58
2021/05/25 04:32:56;;;;;;;;;0.00;0.00;;;;;19.77;38.44;101224.81;5022054;28;45287;-58
2021/05/25 04:35:22;;;;;;;;;1.00;0.00;;;;;19.77;38.19;101230.06;5023502;28;45391;-58
2021/05/25 04:37:47;;;;;;;;;0.33;0.33;;;;;19.76;38.11;101230.97;5033336;28;45260;-58
2021/05/25 04:40:13;;;;;;;;;0.00;0.00;;;;;19.76;38.54;101224.88;5021605;28;45373;-57
2021/05/25 04:42:39;;;;;;;;;1.00;0.67;;;;;19.76;37.99;101235.41;5021356;28;45179;-57
2021/05/25 04:45:06;;;;;;;;;2.33;1.00;;;;;19.75;38.33;101245.06;5020297;28;45475;-57
2021/05/25 04:47:32;;;;;;;;;0.00;0.00;;;;;19.75;37.88;101250.31;5021899;28;45516;-59
2021/05/25 04:49:57;;;;;;;;;0.33;0.33;;;;;19.75;38.11;101245.06;5021428;28;45937;-59
2021/05/25 04:52:22;;;;;;;;;0.00;0.00;;;;;19.75;38.37;101255.59;5020788;28;69892;-58
2021/05/25 04:54:48;;;;;;;;;2.00;1.00;;;;;19.74;38.15;101259.13;5021213;28;53523;-58
2021/05/25 04:57:13;;;;;;;;;0.00;0.00;;;;;19.75;38.32;101268.75;5021510;28;46024;-59
2021/05/25 04:59:39;;;;;;;;;1.00;1.00;;;;;19.74;37.79;101269.66;5021274;28;46144;-58
2021/05/25 05:02:04;;;;;;;;;0.00;0.00;;;;;19.74;38.32;101261.75;5021448;28;45370;-59
2021/05/25 05:04:30;;;;;;;;;0.33;0.33;;;;;19.74;37.95;101268.81;5022038;28;45771;-57
2021/05/25 05:06:55;;;;;;;;;1.00;1.00;;;;;19.73;38.13;101278.50;5025119;28;45307;-57
2021/05/25 05:09:20;;;;;;;;;0.00;0.00;;;;;19.72;38.58;101275.91;5023130;28;58591;-58
2021/05/25 05:11:46;;;;;;;;;1.00;1.00;;;;;19.72;38.48;101268.00;5024754;28;45291;-57
2021/05/25 05:14:11;;;;;;;;;1.00;0.00;;;;;19.72;38.31;101275.91;5022925;28;59542;-57
2021/05/25 05:16:37;;;;;;;;;0.00;0.00;;;;;19.72;38.13;101281.16;5025099;28;45539;-58
2021/05/25 05:19:02;;;;;;;;;0.00;0.00;;;;;19.71;38.46;101288.22;5023133;28;45895;-58
2021/05/25 05:21:28;;;;;;;;;1.00;1.00;;;;;19.71;38.17;101289.97;5023304;28;45327;-58
2021/05/25 05:23:54;;;;;;;;;0.33;0.33;;;;;19.71;38.04;101296.13;5036465;28;45684;-59
2021/05/25 05:26:19;;;;;;;;;1.00;1.00;;;;;19.71;38.18;101290.84;5023241;28;45378;-58
2021/05/25 05:28:45;;;;;;;;;2.00;1.00;;;;;19.70;38.60;101294.38;5024014;28;45239;-58
2021/05/25 05:31:10;;;;;;;;;2.00;2.00;;;;;19.71;38.27;101301.38;5024312;28;46942;-58
2021/05/25 05:33:36;;;;;;;;;0.00;0.00;;;;;19.70;38.36;101302.28;5023785;28;56943;-58
2021/05/25 05:36:01;;;;;;;;;0.67;0.67;;;;;19.70;38.57;101301.41;5027023;28;45490;-58
2021/05/25 05:38:27;;;;;;;;;1.00;1.00;;;;;19.70;37.91;101304.91;5038220;28;61377;-58
2021/05/25 05:40:54;;;;;;;;;2.00;1.00;;;;;19.71;38.00;101311.03;5035615;28;45211;-57
2021/05/25 05:43:19;;;;;;;;;1.00;0.00;;;;;19.70;38.40;101310.19;5035732;28;45517;-58
2021/05/25 05:45:44;;;;;;;;;3.00;1.00;;;;;19.71;38.43;101316.31;5025285;28;45631;-59
2021/05/25 05:48:10;;;;;;;;;1.67;1.67;;;;;19.72;38.98;101320.66;5040840;28;45382;-58
2021/05/25 05:50:35;;;;;;;;;1.00;1.00;;;;;19.72;38.64;101310.13;5043524;28;53854;-58
2021/05/25 05:53:01;;;;;;;;;2.67;1.00;;;;;19.71;38.91;101325.06;5043908;28;45319;-59
2021/05/25 05:55:26;;;;;;;;;0.33;0.33;;;;;19.71;38.72;101319.81;5044009;28;45315;-58
2021/05/25 05:57:53;;;;;;;;;2.00;1.00;;;;;19.73;39.10;101322.38;5042051;28;48579;-58
2021/05/25 06:00:19;;;;;;;;;4.00;2.67;;;;;19.75;39.03;101328.47;5043921;28;45267;-57
2021/05/25 06:02:45;;;;;;;;;1.33;0.00;;;;;19.74;38.88;101330.22;5043540;28;45212;-57
2021/05/25 06:05:11;;;;;;;;;2.00;2.00;;;;;19.73;39.43;101336.44;5044083;28;45228;-57
2021/05/25 06:07:37;;;;;;;;;1.00;1.00;;;;;19.75;39.37;101339.84;5044066;28;46278;-58
2021/05/25 06:10:04;;;;;;;;;2.33;1.00;;;;;19.76;39.39;101343.38;5042576;28;45260;-57
2021/05/25 06:12:30;;;;;;;;;1.00;1.00;;;;;19.76;39.45;101360.00;5042334;28;45366;-57
2021/05/25 06:14:55;;;;;;;;;0.00;0.00;;;;;19.77;39.56;101347.72;5044120;28;45333;-57
2021/05/25 06:17:21;;;;;;;;;0.00;0.00;;;;;19.77;39.49;101355.63;5035980;28;45752;-57
2021/05/25 06:19:46;;;;;;;;;1.67;1.00;;;;;19.78;39.52;101350.28;5021126;28;61256;-57
2021/05/25 06:22:11;;;;;;;;;3.00;1.00;;;;;19.78;39.37;101358.19;5022749;28;45328;-57
2021/05/25 06:24:38;;;;;;;;;1.33;1.33;;;;;19.79;39.63;101362.56;5032199;28;45430;-57
2021/05/25 06:27:03;;;;;;;;;1.67;0.67;;;;;19.79;39.00;101354.66;5022394;28;45455;-57
2021/05/25 06:29:29;;;;;;;;;1.00;1.00;;;;;19.79;39.01;101365.19;5023278;28;45713;-57
2021/05/25 06:31:59;;;;;;;;;0.67;0.67;;;;;19.80;38.93;101372.19;5023313;28;45388;-57
2021/05/25 06:34:26;;;;;;;;;1.00;1.00;;;;;19.80;39.26;101364.28;5023624;28;45569;-58
2021/05/25 06:36:51;;;;;;;;;2.00;0.00;;;;;19.80;39.30;101364.28;5036217;28;46227;-57
2021/05/25 06:39:16;;;;;;;;;2.00;2.00;;;;;19.79;39.21;101362.56;5021636;28;45432;-58
2021/05/25 06:41:42;;;;;;;;;1.33;1.00;;;;;19.82;39.08;101379.19;5021244;28;45387;-58
2021/05/25 06:44:08;;;;;;;;;3.00;1.67;;;;;19.81;38.70;101380.97;5040817;28;45701;-58
2021/05/25 06:46:33;;;;;;;;;1.00;1.00;;;;;19.81;38.66;101380.97;5039792;28;46274;-54
2021/05/25 06:48:59;;;;;;;;;3.00;0.00;;;;;19.82;39.06;101381.81;5027016;28;45431;-53
2021/05/25 06:51:26;;;;;;;;;1.33;1.33;;;;;19.81;39.02;101388.88;5035398;28;45606;-53
2021/05/25 06:53:51;;;;;;;;;2.33;1.00;;;;;19.82;39.28;101379.19;5020991;28;45654;-51
2021/05/25 06:56:17;;;;;;;;;1.67;1.67;;;;;19.82;39.05;101387.94;5019718;28;63278;-52
2021/05/25 06:58:42;;;;;;;;;1.33;1.00;;;;;19.82;39.17;101393.19;5017986;28;45585;-49
2021/05/25 07:01:07;;;;;;;;;2.00;1.00;;;;;19.82;38.77;101393.19;5019621;28;45399;-52
2021/05/25 07:03:33;;;;;;;;;1.33;1.00;;;;;19.82;38.96;101392.34;5020826;28;45654;-50
2021/05/25 07:05:58;;;;;;;;;3.00;1.00;;;;;19.83;39.13;101394.06;5021767;28;45320;-53
2021/05/25 07:08:24;;;;;;;;;3.00;1.33;;;;;19.83;38.48;101396.72;5021537;28;45399;-52
2021/05/25 07:10:49;;;;;;;;;3.33;1.67;;;;;19.83;39.04;101399.34;5014695;28;45398;-50
2021/05/25 07:13:15;;;;;;;;;2.67;2.00;;;;;19.83;38.59;101394.06;5022662;28;45330;-49
2021/05/25 07:15:41;;;;;;;;;1.00;1.00;;;;;19.83;39.11;101397.56;5034011;28;46174;-53
2021/05/25 07:18:06;;;;;;;;;2.00;2.00;;;;;19.83;38.95;101392.28;5022948;28;45351;-53
2021/05/25 07:20:32;;;;;;;;;0.33;0.33;;;;;19.83;38.70;101394.06;5022613;28;45378;-52
2021/05/25 07:22:57;;;;;;;;;1.00;1.00;;;;;19.83;39.05;101404.59;5021770;28;45482;-51
2021/05/25 07:25:25;;;;;;;;;1.00;0.33;;;;;19.82;38.95;101402.88;5022194;28;46238;-51
2021/05/25 07:27:50;;;;;;;;;1.00;1.00;;;;;19.83;38.84;101409.88;5021037;28;45402;-51
2021/05/25 07:30:16;;;;;;;;;3.67;2.00;;;;;19.82;38.75;101403.72;5022309;28;45220;-52
2021/05/25 07:32:42;;;;;;;;;3.33;1.67;;;;;19.82;38.78;101416.06;5022418;28;45325;-51
2021/05/25 07:35:09;;;;;;;;;3.00;2.00;;;;;19.81;38.88;101409.94;5022417;28;45388;-52
2021/05/25 07:37:35;;;;;;;;;3.33;2.00;;;;;19.82;39.01;101409.00;5034802;28;45468;-52
2021/05/25 07:40:00;;;;;;;;;2.00;2.00;;;;;19.83;39.10;101412.50;5022326;28;45438;-53
2021/05/25 07:42:26;;;;;;;;;2.33;2.00;;;;;19.82;38.92;101411.63;5021903;28;46119;-51
2021/05/25 07:44:52;;;;;;;;;3.00;3.00;;;;;19.82;38.87;101402.88;5021827;28;46082;-51
2021/05/25 07:47:17;;;;;;;;;2.00;2.00;;;;;19.82;39.19;101414.25;5020822;28;45486;-49
2021/05/25 07:49:42;;;;;;;;;1.00;1.00;;;;;19.83;38.95;101417.78;5020888;28;45502;-51
2021/05/25 07:52:08;;;;;;;;;2.00;2.00;;;;;19.83;39.05;101416.00;5022294;28;45343;-50
2021/05/25 07:54:33;;;;;;;;;2.00;2.00;;;;;19.83;39.12;101416.00;5020561;28;46671;-49
2021/05/25 07:56:59;;;;;;;;;3.00;3.00;;;;;19.83;38.78;101418.63;5021611;28;45483;-51
2021/05/25 07:59:24;;;;;;;;;2.00;2.00;;;;;19.83;39.17;101416.00;5020491;28;54625;-52
2021/05/25 08:01:50;;;;;;;;;1.33;1.33;;;;;19.83;38.98;101418.63;5020687;28;45668;-52
2021/05/25 08:04:16;;;;;;;;;1.67;1.67;;;;;19.83;39.04;101418.63;5021808;28;46236;-53
2021/05/25 08:06:41;;;;;;;;;2.00;2.00;;;;;19.84;39.00;101427.41;5021721;28;45286;-53
2021/05/25 08:09:07;;;;;;;;;1.67;1.67;;;;;19.83;39.10;101426.53;5021577;28;46749;-50
2021/05/25 08:11:32;;;;;;;;;1.00;0.33;;;;;19.84;38.98;101427.41;5021843;28;45532;-53
2021/05/25 08:13:58;;;;;;;;;1.67;1.67;;;;;19.84;38.82;101416.88;5021645;28;45295;-54
2021/05/25 08:16:28;;;;;;;;;2.00;2.00;;;;;19.83;38.98;101423.03;5021728;28;45326;-49
2021/05/25 08:19:08;;;;;;;;;4.00;2.67;;;;;19.84;39.23;101416.88;5021701;28;45269;-51
2021/05/25 08:21:34;;;;;;;;;1.67;1.67;;;;;19.83;39.01;101420.41;5021689;28;45161;-50
2021/05/25 08:24:00;;;;;;;;;2.67;1.67;;;;;19.84;38.97;101422.13;5033742;28;47186;-50
2021/05/25 08:26:27;;;;;;;;;1.67;1.67;;;;;19.84;38.80;101432.66;5021174;28;45239;-52
2021/05/25 08:28:52;;;;;;;;;0.67;0.67;;;;;19.83;38.95;101426.53;5033869;28;45365;-51
2021/05/25 08:31:18;;;;;;;;;2.00;2.00;;;;;19.83;39.18;101439.69;5020518;28;45432;-48
2021/05/25 08:33:43;;;;;;;;;3.00;2.00;;;;;19.84;38.86;101430.88;5019280;28;64851;-53
2021/05/25 08:36:09;;;;;;;;;1.00;1.00;;;;;19.85;38.95;101434.41;5029270;28;60588;-48
2021/05/25 08:38:35;;;;;;;;;1.67;1.67;;;;;19.85;39.11;101440.50;5026213;28;45186;-50
2021/05/25 08:41:03;;;;;;;;;1.67;1.67;;;;;19.85;38.89;101439.66;5031288;28;45285;-52
2021/05/25 08:43:28;;;;;;;;;1.33;1.33;;;;;19.86;39.27;101433.50;5028455;28;45414;-50
2021/05/25 08:45:54;;;;;;;;;1.67;1.67;;;;;19.86;39.20;101444.03;5024575;28;45463;-51
2021/05/25 08:48:19;;;;;;;;;4.00;1.00;;;;;19.87;38.91;101443.16;5024801;28;45577;-50
2021/05/25 08:50:45;;;;;;;;;0.67;0.67;;;;;19.87;38.86;101448.41;5024901;28;45438;-52
2021/05/25 08:53:11;;;;;;;;;1.33;0.67;;;;;19.87;38.85;101441.38;5024385;28;46230;-48
2021/05/25 08:55:38;;;;;;;;;1.33;1.00;;;;;19.88;38.61;101434.34;5022811;28;45454;-52
2021/05/25 08:58:05;;;;;;;;;2.00;2.00;;;;;19.89;38.86;101425.53;5023279;28;45440;-52
2021/05/25 09:00:32;;;;;;;;;2.00;0.33;;;;;19.89;38.64;101430.81;5023433;28;45539;-52
2021/05/25 09:02:57;;;;;;;;;1.33;1.33;;;;;19.90;38.77;101435.13;5023911;28;46340;-51
2021/05/25 09:05:24;;;;;;;;;2.67;1.33;;;;;19.90;38.68;101419.34;5023165;28;47380;-52
2021/05/25 09:07:50;;;;;;;;;1.33;1.33;;;;;19.91;38.95;101423.69;5024450;28;45358;-54
2021/05/25 09:10:38;;;;;;;;;1.67;1.00;;;;;19.90;38.89;101427.22;5024508;28;45495;-51
2021/05/25 09:13:11;;;;;;;;;4.33;1.33;;;;;19.91;38.75;101427.22;5024275;28;46200;-49
2021/05/25 09:15:38;;;;;;;;;4.67;3.00;;;;;19.92;38.67;101433.31;5007370;28;45426;-52
2021/05/25 09:18:03;;;;;;;;;1.00;1.00;;;;;19.91;38.55;101429.84;5024515;28;45432;-50
2021/05/25 09:20:53;;;;;;;;;3.00;3.00;;;;;19.92;38.95;101428.94;5024523;28;45382;-51
2021/05/25 09:23:18;;;;;;;;;2.00;2.00;;;;;19.92;38.95;101425.41;5023190;28;46430;-53
2021/05/25 09:25:55;;;;;;;;;1.00;1.00;;;;;19.91;38.79;101429.84;5023989;28;45462;-50
2021/05/25 09:28:21;;;;;;;;;2.00;2.00;;;;;19.91;38.63;101434.22;5024607;28;45478;-49
2021/05/25 09:30:48;;;;;;;;;0.33;0.33;;;;;19.90;38.78;101438.66;5024444;28;45469;-52
2021/05/25 09:33:14;;;;;;;;;1.67;1.33;;;;;19.90;38.60;101436.00;5024215;28;46896;-52
2021/05/25 09:35:42;;;;;;;;;3.00;1.67;;;;;19.91;38.69;101434.22;5028226;28;45486;-52
2021/05/25 09:38:13;;;;;;;;;2.00;2.00;;;;;19.92;39.15;101417.53;5024454;28;45297;-50
2021/05/25 09:40:44;;;;;;;;;2.33;2.33;;;;;19.93;38.70;101433.28;5024072;28;45327;-54
2021/05/25 09:43:19;;;;;;;;;2.00;2.00;;;;;19.94;38.83;101419.22;5022600;28;46300;-50
2021/05/25 09:45:54;;;;;;;;;2.00;2.00;;;;;19.94;38.52;101427.13;5023757;28;45781;-52
2021/05/25 09:48:21;;;;;;;;;2.00;2.00;;;;;19.94;38.77;101424.50;5035800;28;45476;-54
2021/05/25 09:50:47;;;;;;;;;0.67;0.67;;;;;19.94;38.70;101420.97;5024203;28;45768;-55
2021/05/25 09:53:21;;;;;;;;;0.67;0.67;;;;;19.94;38.83;101413.94;5022469;28;46615;-50
2021/05/25 09:56:22;;;;;;;;;2.00;2.00;;;;;19.95;38.54;101406.91;5032008;28;45342;-54
2021/05/25 09:58:48;;;;;;;;;1.00;1.00;;;;;19.96;38.83;101427.06;5008277;28;45516;-52
2021/05/25 10:01:13;;;;;;;;;2.67;1.00;;;;;19.96;38.60;101419.16;5029582;28;45229;-49
2021/05/25 10:03:48;;;;;;;;;1.00;1.00;;;;;19.95;38.55;101422.69;5023671;28;45966;-52
2021/05/25 10:06:13;;;;;;;;;0.67;0.67;;;;;19.96;38.81;101427.06;5023613;28;45259;-53
2021/05/25 10:08:43;;;;;;;;;0.67;0.67;;;;;19.96;38.59;101424.44;5030285;28;45478;-52
2021/05/25 10:11:09;;;;;;;;;2.00;1.00;;;;;19.96;38.60;101427.06;5026966;28;45311;-50
2021/05/25 10:13:34;;;;;;;;;3.67;1.33;;;;;19.96;38.84;101419.16;5022019;28;46511;-52
2021/05/25 10:16:01;;;;;;;;;1.67;1.67;;;;;19.96;38.73;101437.59;5022126;28;45292;-48
2021/05/25 10:20:56;;;;;;;;;2.67;2.67;;;;;19.95;39.05;101454.31;5038751;28;45497;-60
2021/05/25 10:23:23;;;;;;;;;5.00;3.33;;;;;19.95;38.98;101454.31;5040875;28;47722;-67
2021/05/25 10:25:52;;;;;;;;;2.33;1.33;;;;;19.95;39.23;101473.63;5035860;28;45455;-54
2021/05/25 10:28:17;;;;;;;;;1.67;0.67;;;;;19.95;38.93;101475.38;5034015;28;45350;-60
2021/05/25 10:30:50;;;;;;;;;5.33;2.33;;;;;19.95;39.12;101483.28;5035480;28;45323;-64
2021/05/25 10:33:16;;;;;;;;;2.33;2.33;;;;;19.95;38.92;101489.44;5023081;28;45966;-59
2021/05/25 10:35:57;;;;;;;;;2.33;1.00;;;;;19.95;39.28;101486.81;5028736;28;45418;-59
2021/05/25 10:38:42;;;;;;;;;1.67;1.67;;;;;19.95;39.25;101491.19;5025894;28;45426;-58
2021/05/25 10:41:08;;;;;;;;;1.67;1.67;;;;;19.94;39.30;101498.25;5029641;28;45426;-58
2021/05/25 10:43:42;;;;;;;;;3.33;2.00;;;;;19.95;39.30;101499.09;5027684;28;45806;-56
2021/05/25 10:46:11;;;;;;;;;2.00;2.00;;;;;19.95;39.13;101494.69;5036284;28;45367;-54
2021/05/25 10:49:16;;;;;;;;;3.00;1.67;;;;;19.95;39.42;101497.34;5021989;28;45509;-53
2021/05/25 10:51:48;;;;;;;;;1.67;1.67;;;;;19.96;38.94;101511.34;5021077;28;45600;-53
2021/05/25 10:54:31;;;;;;;;;1.67;1.67;;;;;19.95;39.02;101510.50;5022840;28;45475;-63
2021/05/25 10:57:00;;;;;;;;;3.00;2.67;;;;;19.94;39.31;101500.00;5006972;28;45554;-61
2021/05/25 10:59:26;;;;;;;;;0.33;0.33;;;;;19.94;39.36;101492.09;5020996;28;45357;-51
2021/05/25 11:01:59;;;;;;;;;2.33;1.33;;;;;19.95;39.04;101484.16;5020121;28;45543;-56
2021/05/25 11:04:35;;;;;;;;;2.00;1.50;;;;;19.95;38.99;101484.16;5002362;28;45671;-51
2021/05/25 11:07:03;;;;;;;;;1.33;0.67;;;;;19.98;39.10;101487.59;5020418;28;45593;-54
2021/05/25 11:09:29;;;;;;;;;2.67;1.33;;;;;19.99;38.86;101490.19;5012212;28;45601;-50
2021/05/25 11:12:12;;;;;;;;;2.00;0.67;;;;;20.00;39.25;101480.50;5023588;28;45727;-53
2021/05/25 11:14:58;;;;;;;;;1.00;1.00;;;;;20.00;39.08;101480.50;5020147;28;45940;-52
2021/05/25 11:17:31;;;;;;;;;4.33;3.00;;;;;20.01;39.17;101476.97;5022389;28;45266;-50
2021/05/25 11:20:11;;;;;;;;;1.33;1.33;;;;;20.00;39.29;101480.50;5037580;28;45363;-52
2021/05/25 11:22:38;;;;;;;;;2.67;1.33;;;;;20.01;39.29;101469.94;5017801;28;45471;-53
2021/05/25 11:25:06;;;;;;;;;1.67;1.67;;;;;20.01;39.06;101471.69;5022324;28;47257;-55
2021/05/25 11:27:44;;;;;;;;;3.00;2.00;;;;;20.01;38.93;101476.97;5032682;28;45287;-53
2021/05/25 11:30:24;;;;;;;;;2.67;1.00;;;;;20.00;38.81;101470.84;5018067;28;45797;-51